createdAt,value
2018-07-25T00:00:25.462Z,100665.19
2018-07-25T00:02:30.477Z,100690.92
2018-07-25T00:04:35.495Z,100690.89
2018-07-25T00:06:40.331Z,100690.06
2018-07-25T00:08:45.291Z,100683.97
2018-07-25T00:10:53.957Z,100690.09
2018-07-25T00:12:58.811Z,100686.57
2018-07-25T00:15:04.125Z,100686.60
2018-07-25T00:17:12.660Z,100685.78
2018-07-25T00:19:17.483Z,100685.29
2018-07-25T00:21:22.256Z,100682.71
2018-07-25T00:23:27.060Z,100678.77
2018-07-25T00:25:31.733Z,100678.34
2018-07-25T00:27:36.459Z,100677.08
2018-07-25T00:29:41.157Z,100676.69
2018-07-25T00:31:45.906Z,100680.19
2018-07-25T00:33:50.716Z,100682.03
2018-07-25T00:35:55.689Z,100680.61
2018-07-25T00:38:00.373Z,100678.06
2018-07-25T00:40:05.258Z,100685.50
2018-07-25T00:42:09.996Z,100681.20
2018-07-25T00:44:14.715Z,100610.77
2018-07-25T00:46:19.537Z,100677.70
2018-07-25T00:48:24.242Z,100683.39
2018-07-25T00:50:29.320Z,100683.88
2018-07-25T00:52:34.105Z,100681.20
2018-07-25T00:54:38.926Z,100688.66
2018-07-25T00:56:43.667Z,100680.38
2018-07-25T00:58:48.358Z,100688.67
2018-07-25T01:00:53.106Z,100682.16
2018-07-25T01:02:57.810Z,100683.52
2018-07-25T01:05:02.566Z,100686.14
2018-07-25T01:07:07.650Z,100685.30
2018-07-25T01:09:12.718Z,100680.47
2018-07-25T01:11:17.480Z,100679.17
2018-07-25T01:13:22.262Z,100680.09
2018-07-25T01:15:27.099Z,100673.64
2018-07-25T01:17:31.817Z,100677.46
2018-07-25T01:19:36.545Z,100680.95
2018-07-25T01:21:41.269Z,100683.13
2018-07-25T01:23:46.735Z,100681.35
2018-07-25T01:25:51.450Z,100682.71
2018-07-25T01:27:56.362Z,100683.13
2018-07-25T01:30:01.227Z,100682.27
2018-07-25T01:32:06.067Z,100687.11
2018-07-25T01:34:11.942Z,100686.72
2018-07-25T01:36:16.764Z,100683.26
2018-07-25T01:38:21.529Z,100686.34
2018-07-25T01:40:26.241Z,100688.95
2018-07-25T01:42:30.960Z,100691.17
2018-07-25T01:44:35.704Z,100692.48
2018-07-25T01:46:40.535Z,100686.39
2018-07-25T01:48:45.330Z,100681.58
2018-07-25T01:50:50.029Z,100679.41
2018-07-25T01:52:54.815Z,100683.33
2018-07-25T01:54:59.657Z,100681.58
2018-07-25T01:57:04.488Z,100684.19
2018-07-25T01:59:09.297Z,100678.97
2018-07-25T02:01:14.105Z,100680.27
2018-07-25T02:03:19.442Z,100683.34
2018-07-25T02:05:24.182Z,100687.28
2018-07-25T02:07:28.892Z,100689.02
2018-07-25T02:09:33.944Z,100685.08
2018-07-25T02:11:55.508Z,100687.27
2018-07-25T02:14:00.710Z,100687.70
2018-07-25T02:16:05.466Z,100689.89
2018-07-25T02:18:10.181Z,100687.69
2018-07-25T02:20:14.997Z,100689.86
2018-07-25T02:22:19.879Z,100691.16
2018-07-25T02:24:24.641Z,100693.81
2018-07-25T02:26:29.378Z,100690.33
2018-07-25T02:28:34.203Z,100692.08
2018-07-25T02:30:39.387Z,100694.27
2018-07-25T02:32:44.583Z,100693.83
2018-07-25T02:34:49.976Z,100682.52
2018-07-25T02:36:54.778Z,100699.51
2018-07-25T02:38:59.806Z,100695.60
2018-07-25T02:41:04.622Z,100698.16
2018-07-25T02:43:09.380Z,100703.86
2018-07-25T02:45:14.495Z,100704.30
2018-07-25T02:47:19.542Z,100703.44
2018-07-25T02:49:24.412Z,100700.80
2018-07-25T02:51:29.366Z,100702.11
2018-07-25T02:53:34.177Z,100709.95
2018-07-25T02:55:39.072Z,100719.09
2018-07-25T02:57:44.046Z,100713.42
2018-07-25T02:59:48.969Z,100704.29
2018-07-25T03:01:54.957Z,100713.86
2018-07-25T03:04:00.262Z,100719.52
2018-07-25T03:06:05.161Z,100709.04
2018-07-25T03:08:10.446Z,100714.73
2018-07-25T03:10:15.433Z,100715.17
2018-07-25T03:12:20.746Z,100716.47
2018-07-25T03:14:26.044Z,100719.95
2018-07-25T03:16:30.889Z,100724.30
2018-07-25T03:18:35.796Z,100722.13
2018-07-25T03:20:40.786Z,100731.27
2018-07-25T03:22:45.621Z,100725.17
2018-07-25T03:24:50.463Z,100725.61
2018-07-25T03:26:55.390Z,100726.00
2018-07-25T03:29:00.181Z,100657.20
2018-07-25T03:31:05.219Z,100720.77
2018-07-25T03:33:10.087Z,100721.21
2018-07-25T03:35:14.872Z,100736.00
2018-07-25T03:37:19.814Z,100739.47
2018-07-25T03:39:24.618Z,100740.34
2018-07-25T03:41:29.501Z,100740.78
2018-07-25T03:43:34.253Z,100746.44
2018-07-25T03:45:38.928Z,100745.56
2018-07-25T03:47:43.661Z,100742.09
2018-07-25T03:49:48.446Z,100744.26
2018-07-25T03:51:53.245Z,100744.69
2018-07-25T03:53:57.668Z,100745.55
2018-07-25T03:56:02.552Z,100737.73
2018-07-25T03:58:07.310Z,100736.86
2018-07-25T04:00:12.266Z,100740.34
2018-07-25T04:02:17.001Z,100743.38
2018-07-25T04:04:21.872Z,100746.42
2018-07-25T04:06:28.349Z,100745.55
2018-07-25T04:08:33.317Z,100745.55
2018-07-25T04:10:38.446Z,100740.77
2018-07-25T04:12:43.157Z,100742.50
2018-07-25T04:14:47.959Z,100745.98
2018-07-25T04:16:52.659Z,100726.79
2018-07-25T04:18:57.635Z,100742.06
2018-07-25T04:21:02.614Z,100738.98
2018-07-25T04:23:07.656Z,100736.80
2018-07-25T04:25:12.822Z,100737.22
2018-07-25T04:27:17.834Z,100738.08
2018-07-25T04:29:22.602Z,100741.11
2018-07-25T04:31:27.380Z,100742.00
2018-07-25T04:33:32.350Z,100743.75
2018-07-25T04:35:36.831Z,100747.24
2018-07-25T04:37:42.272Z,100746.80
2018-07-25T04:39:47.201Z,100743.31
2018-07-25T04:41:52.312Z,100749.41
2018-07-25T04:43:57.575Z,100750.34
2018-07-25T04:46:02.368Z,100759.03
2018-07-25T04:48:07.711Z,100759.04
2018-07-25T04:50:12.436Z,100756.86
2018-07-25T04:52:17.568Z,100763.83
2018-07-25T04:54:22.598Z,100769.06
2018-07-25T04:56:27.555Z,100767.76
2018-07-25T04:58:32.367Z,100767.81
2018-07-25T05:00:37.462Z,100767.81
2018-07-25T05:02:42.292Z,100770.42
2018-07-25T05:04:47.404Z,100767.81
2018-07-25T05:06:52.369Z,100767.81
2018-07-25T05:08:57.470Z,100769.56
2018-07-25T05:11:02.134Z,100779.58
2018-07-25T05:13:07.052Z,100772.61
2018-07-25T05:15:12.094Z,100777.40
2018-07-25T05:17:17.006Z,100784.41
2018-07-25T05:19:21.750Z,100779.17
2018-07-25T05:21:26.577Z,100782.66
2018-07-25T05:23:31.543Z,100784.41
2018-07-25T05:25:36.354Z,100785.70
2018-07-25T05:27:41.187Z,100793.55
2018-07-25T05:29:46.314Z,100790.93
2018-07-25T05:31:52.116Z,100797.02
2018-07-25T05:33:56.949Z,100794.41
2018-07-25T05:36:02.081Z,100800.51
2018-07-25T05:38:06.982Z,100803.55
2018-07-25T05:40:11.885Z,100803.13
2018-07-25T05:42:16.721Z,100810.09
2018-07-25T05:44:21.841Z,100801.81
2018-07-25T05:46:26.693Z,100801.81
2018-07-25T05:48:31.461Z,100808.78
2018-07-25T05:50:36.587Z,100810.52
2018-07-25T05:52:41.415Z,100812.70
2018-07-25T05:54:46.248Z,100819.23
2018-07-25T05:56:53.922Z,100820.53
2018-07-25T05:58:59.141Z,100823.58
2018-07-25T06:01:04.153Z,100826.19
2018-07-25T06:03:10.185Z,100828.37
2018-07-25T06:05:14.942Z,100828.83
2018-07-25T06:07:19.805Z,100832.32
2018-07-25T06:09:24.877Z,100832.31
2018-07-25T06:11:30.142Z,100827.95
2018-07-25T06:13:34.829Z,100833.19
2018-07-25T06:15:39.642Z,100837.53
2018-07-25T06:17:44.715Z,100833.20
2018-07-25T06:19:49.747Z,100834.08
2018-07-25T06:21:54.523Z,100833.20
2018-07-25T06:23:59.797Z,100840.17
2018-07-25T06:26:05.108Z,100841.03
2018-07-25T06:28:09.914Z,100840.59
2018-07-25T06:30:15.792Z,100837.95
2018-07-25T06:32:20.891Z,100842.33
2018-07-25T06:34:26.233Z,100843.19
2018-07-25T06:36:32.994Z,100844.94
2018-07-25T06:38:37.831Z,100845.37
2018-07-25T06:40:42.930Z,100850.16
2018-07-25T06:42:47.705Z,100850.59
2018-07-25T06:44:52.514Z,100856.23
2018-07-25T06:46:57.465Z,100844.88
2018-07-25T06:49:02.518Z,100855.34
2018-07-25T06:51:08.039Z,100854.05
2018-07-25T06:53:12.830Z,100856.64
2018-07-25T06:55:17.868Z,100852.69
2018-07-25T06:57:22.797Z,100864.52
2018-07-25T06:59:28.713Z,100864.52
2018-07-25T07:01:33.989Z,100861.88
2018-07-25T07:03:38.955Z,100870.58
2018-07-25T07:05:44.095Z,100869.23
2018-07-25T07:07:49.240Z,100869.66
2018-07-25T07:09:54.274Z,100873.55
2018-07-25T07:11:59.313Z,100877.87
2018-07-25T07:14:04.490Z,100874.36
2018-07-25T07:16:09.202Z,100870.84
2018-07-25T07:18:14.121Z,100873.44
2018-07-25T07:20:19.610Z,100877.80
2018-07-25T07:22:24.646Z,100877.79
2018-07-25T07:24:29.643Z,100876.92
2018-07-25T07:26:34.768Z,100878.20
2018-07-25T07:28:39.730Z,100877.33
2018-07-25T07:30:45.316Z,100875.54
2018-07-25T07:32:50.334Z,100879.41
2018-07-25T07:34:55.932Z,100881.54
2018-07-25T07:37:01.241Z,100885.85
2018-07-25T07:39:11.308Z,100877.39
2018-07-25T07:41:16.160Z,100875.27
2018-07-25T07:43:21.145Z,100876.95
2018-07-25T07:45:25.833Z,100882.16
2018-07-25T07:47:30.643Z,100876.46
2018-07-25T07:49:35.278Z,100879.02
2018-07-25T07:51:40.034Z,100888.19
2018-07-25T07:53:45.797Z,100883.75
2018-07-25T07:55:50.914Z,100888.96
2018-07-25T07:57:55.787Z,100891.13
2018-07-25T08:00:00.655Z,100879.80
2018-07-25T08:02:05.562Z,100887.55
2018-07-25T08:04:10.542Z,100882.68
2018-07-25T08:06:15.252Z,100886.58
2018-07-25T08:08:20.019Z,100881.30
2018-07-25T08:10:24.821Z,100882.04
2018-07-25T08:12:30.112Z,100884.13
2018-07-25T08:14:35.445Z,100888.48
2018-07-25T08:16:40.537Z,100884.35
2018-07-25T08:18:45.492Z,100887.32
2018-07-25T08:20:50.565Z,100888.66
2018-07-25T08:22:55.400Z,100886.44
2018-07-25T08:25:00.910Z,100888.84
2018-07-25T08:27:05.709Z,100884.86
2018-07-25T08:29:11.179Z,100884.41
2018-07-25T08:31:16.020Z,100878.14
2018-07-25T08:33:20.808Z,100878.57
2018-07-25T08:35:26.189Z,100881.94
2018-07-25T08:37:32.157Z,100879.48
2018-07-25T08:39:36.941Z,100876.55
2018-07-25T08:41:42.035Z,100880.94
2018-07-25T08:43:47.264Z,100880.89
2018-07-25T08:45:52.442Z,100877.25
2018-07-25T08:47:57.497Z,100882.19
2018-07-25T08:50:02.516Z,100880.87
2018-07-25T08:52:07.581Z,100884.27
2018-07-25T08:54:12.678Z,100874.17
2018-07-25T08:56:17.574Z,100879.20
2018-07-25T08:58:22.430Z,100884.25
2018-07-25T09:00:27.242Z,100874.39
2018-07-25T09:02:32.241Z,100881.43
2018-07-25T09:04:37.294Z,100886.34
2018-07-25T09:06:42.067Z,100887.19
2018-07-25T09:08:47.083Z,100872.86
2018-07-25T09:10:52.086Z,100888.84
2018-07-25T09:12:57.172Z,100887.97
2018-07-25T09:15:02.149Z,100884.47
2018-07-25T09:17:07.047Z,100887.84
2018-07-25T09:19:12.066Z,100884.29
2018-07-25T09:21:18.030Z,100881.92
2018-07-25T09:23:23.184Z,100888.50
2018-07-25T09:25:28.288Z,100874.31
2018-07-25T09:27:33.109Z,100884.23
2018-07-25T09:29:37.921Z,100881.34
2018-07-25T09:31:42.909Z,100884.33
2018-07-25T09:33:47.723Z,100881.77
2018-07-25T09:35:53.205Z,100891.59
2018-07-25T09:37:58.160Z,100883.16
2018-07-25T09:40:03.079Z,100885.48
2018-07-25T09:42:08.227Z,100889.31
2018-07-25T09:44:13.029Z,100892.51
2018-07-25T09:46:18.154Z,100891.30
2018-07-25T09:48:22.895Z,100889.55
2018-07-25T09:50:27.686Z,100887.05
2018-07-25T09:52:32.681Z,100887.27
2018-07-25T09:54:37.688Z,100883.63
2018-07-25T09:56:42.523Z,100891.41
2018-07-25T09:58:49.289Z,100881.86
2018-07-25T10:00:54.144Z,100881.44
2018-07-25T10:02:58.921Z,100882.66
2018-07-25T10:05:03.815Z,100878.53
2018-07-25T10:07:08.741Z,100880.08
2018-07-25T10:09:14.115Z,100876.80
2018-07-25T10:11:19.334Z,100880.52
2018-07-25T10:13:24.817Z,100872.56
2018-07-25T10:15:30.081Z,100878.80
2018-07-25T10:17:35.153Z,100879.84
2018-07-25T10:19:40.150Z,100886.81
2018-07-25T10:21:45.260Z,100887.23
2018-07-25T10:23:50.178Z,100877.72
2018-07-25T10:25:54.956Z,100877.46
2018-07-25T10:27:59.775Z,100871.42
2018-07-25T10:30:05.173Z,100885.80
2018-07-25T10:32:10.332Z,100878.78
2018-07-25T10:34:16.366Z,100873.41
2018-07-25T10:36:21.582Z,100873.89
2018-07-25T10:38:26.812Z,100867.61
2018-07-25T10:40:31.843Z,100877.41
2018-07-25T10:42:36.383Z,100861.28
2018-07-25T10:44:41.032Z,100863.97
2018-07-25T10:46:46.213Z,100861.09
2018-07-25T10:48:57.767Z,100864.11
2018-07-25T10:51:06.728Z,100871.34
2018-07-25T10:53:11.672Z,100859.16
2018-07-25T10:55:16.703Z,100867.68
2018-07-25T10:57:21.555Z,100864.13
2018-07-25T10:59:26.667Z,100869.38
2018-07-25T11:01:31.746Z,100870.25
2018-07-25T11:03:36.844Z,100867.60
2018-07-25T11:05:41.987Z,100861.66
2018-07-25T11:07:47.047Z,100866.28
2018-07-25T11:09:52.262Z,100865.67
2018-07-25T11:11:58.389Z,100854.43
2018-07-25T11:14:03.591Z,100861.09
2018-07-25T11:16:08.638Z,100864.77
2018-07-25T11:18:13.636Z,100861.44
2018-07-25T11:20:19.103Z,100854.94
2018-07-25T11:22:24.191Z,100856.97
2018-07-25T11:24:29.574Z,100863.17
2018-07-25T11:26:34.786Z,100855.89
2018-07-25T11:28:40.367Z,100858.80
2018-07-25T11:30:45.138Z,100856.00
2018-07-25T11:32:50.052Z,100848.11
2018-07-25T11:34:54.874Z,100850.09
2018-07-25T11:37:00.117Z,100845.16
2018-07-25T11:39:10.267Z,100849.03
2018-07-25T11:41:15.097Z,100844.31
2018-07-25T11:43:21.905Z,100840.48
2018-07-25T11:45:27.145Z,100842.16
2018-07-25T11:47:31.973Z,100851.61
2018-07-25T11:49:37.009Z,100841.23
2018-07-25T11:51:42.112Z,100842.39
2018-07-25T11:53:47.290Z,100844.61
2018-07-25T11:55:52.235Z,100842.06
2018-07-25T11:57:57.118Z,100834.35
2018-07-25T12:00:02.113Z,100835.20
2018-07-25T12:02:07.170Z,100838.77
2018-07-25T12:04:12.166Z,100833.67
2018-07-25T12:06:17.151Z,100839.29
2018-07-25T12:08:21.894Z,100832.32
2018-07-25T12:10:26.626Z,100825.06
2018-07-25T12:12:31.446Z,100828.78
2018-07-25T12:14:39.759Z,100825.38
2018-07-25T12:16:44.862Z,100824.89
2018-07-25T12:18:50.303Z,100820.01
2018-07-25T12:20:55.372Z,100822.75
2018-07-25T12:23:00.249Z,100821.36
2018-07-25T12:25:05.880Z,100821.70
2018-07-25T12:27:10.872Z,100809.64
2018-07-25T12:29:15.649Z,100802.50
2018-07-25T12:31:20.613Z,100804.48
2018-07-25T12:33:25.356Z,100807.17
2018-07-25T12:35:30.119Z,100800.00
2018-07-25T12:37:34.895Z,100797.41
2018-07-25T12:39:39.722Z,100805.38
2018-07-25T12:41:44.530Z,100809.16
2018-07-25T12:43:49.239Z,100805.34
2018-07-25T12:45:53.980Z,100798.67
2018-07-25T12:47:58.803Z,100800.23
2018-07-25T12:50:04.044Z,100787.09
2018-07-25T12:52:08.981Z,100794.33
2018-07-25T12:54:13.994Z,100798.58
2018-07-25T12:56:19.496Z,100797.12
2018-07-25T12:58:24.471Z,100792.20
2018-07-25T13:00:29.421Z,100780.09
2018-07-25T13:02:34.404Z,100790.30
2018-07-25T13:04:39.264Z,100789.70
2018-07-25T13:06:44.544Z,100788.17
2018-07-25T13:08:49.823Z,100789.09
2018-07-25T13:10:54.637Z,100786.30
2018-07-25T13:12:59.494Z,100785.58
2018-07-25T13:15:04.441Z,100783.43
2018-07-25T13:17:09.041Z,100774.84
2018-07-25T13:19:13.818Z,100791.30
2018-07-25T13:21:19.062Z,100791.73
2018-07-25T13:23:23.915Z,100790.61
2018-07-25T13:25:28.780Z,100789.79
2018-07-25T13:27:33.523Z,100789.58
2018-07-25T13:29:38.467Z,100794.02
2018-07-25T13:31:43.289Z,100789.56
2018-07-25T13:33:48.021Z,100775.89
2018-07-25T13:35:52.855Z,100780.41
2018-07-25T13:37:57.547Z,100786.25
2018-07-25T13:40:02.604Z,100783.11
2018-07-25T13:42:07.690Z,100778.91
2018-07-25T13:44:12.615Z,100777.54
2018-07-25T13:46:17.704Z,100774.34
2018-07-25T13:48:22.294Z,100773.16
2018-07-25T13:50:27.074Z,100763.28
2018-07-25T13:52:31.872Z,100765.63
2018-07-25T13:54:36.827Z,100765.38
2018-07-25T13:56:41.883Z,100767.03
2018-07-25T13:58:46.677Z,100767.12
2018-07-25T14:00:51.612Z,100773.08
2018-07-25T14:02:56.327Z,100769.17
2018-07-25T14:05:01.207Z,100762.74
2018-07-25T14:07:06.086Z,100772.86
2018-07-25T14:09:11.986Z,100773.03
2018-07-25T14:11:16.898Z,100772.17
2018-07-25T14:13:21.679Z,100765.13
2018-07-25T14:15:26.537Z,100753.84
2018-07-25T14:17:32.290Z,100758.78
2018-07-25T14:19:37.059Z,100765.13
2018-07-25T14:21:41.799Z,100763.40
2018-07-25T14:23:46.831Z,100764.18
2018-07-25T14:25:53.859Z,100783.22
2018-07-25T14:28:04.412Z,100794.44
2018-07-25T14:30:09.273Z,100781.98
2018-07-25T14:32:14.037Z,100771.50
2018-07-25T14:34:19.342Z,100758.69
2018-07-25T14:36:24.588Z,100753.16
2018-07-25T14:38:29.502Z,100747.14
2018-07-25T14:40:34.411Z,100752.78
2018-07-25T14:42:39.298Z,100754.75
2018-07-25T14:44:44.353Z,100751.31
2018-07-25T14:46:49.360Z,100758.03
2018-07-25T14:48:54.091Z,100752.34
2018-07-25T14:51:00.859Z,100751.25
2018-07-25T14:53:08.161Z,100748.47
2018-07-25T14:55:12.881Z,100739.05
2018-07-25T14:57:17.805Z,100745.73
2018-07-25T14:59:22.608Z,100743.88
2018-07-25T15:01:27.445Z,100751.70
2018-07-25T15:03:32.295Z,100752.97
2018-07-25T15:05:37.187Z,100756.30
2018-07-25T15:07:43.184Z,100756.30
2018-07-25T15:09:54.766Z,100759.44
2018-07-25T15:11:59.975Z,100762.89
2018-07-25T15:14:05.433Z,100761.75
2018-07-25T15:16:10.355Z,100759.20
2018-07-25T15:18:15.238Z,100754.88
2018-07-25T15:20:21.009Z,100756.23
2018-07-25T15:22:26.145Z,100750.62
2018-07-25T15:24:31.151Z,100752.42
2018-07-25T15:26:36.083Z,100752.53
2018-07-25T15:28:42.299Z,100750.23
2018-07-25T15:30:47.747Z,100747.84
2018-07-25T15:35:03.875Z,100752.36
2018-07-25T15:37:08.800Z,100753.02
2018-07-25T15:39:18.914Z,100751.80
2018-07-25T15:41:23.882Z,100749.23
2018-07-25T15:43:28.735Z,100754.48
2018-07-25T15:45:33.906Z,100757.53
2018-07-25T15:47:38.846Z,100760.89
2018-07-25T15:49:43.707Z,100773.74
2018-07-25T15:51:48.712Z,100768.05
2018-07-25T15:53:54.008Z,100770.27
2018-07-25T15:55:58.773Z,100776.03
2018-07-25T15:58:03.596Z,100778.72
2018-07-25T16:00:13.579Z,100776.41
2018-07-25T16:02:21.559Z,100771.63
2018-07-25T16:04:27.148Z,100774.46
2018-07-25T16:06:32.401Z,100769.09
2018-07-25T16:08:58.219Z,100770.05
2018-07-25T16:11:04.670Z,100767.28
2018-07-25T16:13:16.068Z,100765.77
2018-07-25T16:15:21.236Z,100764.55
2018-07-25T16:17:25.957Z,100768.41
2018-07-25T16:19:30.984Z,100768.81
2018-07-25T16:21:35.782Z,100764.98
2018-07-25T16:23:40.299Z,100758.57
2018-07-25T16:25:45.290Z,100757.19
2018-07-25T16:27:50.151Z,100751.70
2018-07-25T16:29:55.043Z,100745.30
2018-07-25T16:31:59.806Z,100743.67
2018-07-25T16:34:04.551Z,100742.28
2018-07-25T16:36:09.870Z,100743.05
2018-07-25T16:38:14.895Z,100733.70
2018-07-25T16:40:19.724Z,100732.98
2018-07-25T16:42:24.827Z,100731.27
2018-07-25T16:44:29.770Z,100731.66
2018-07-25T16:46:34.753Z,100738.08
2018-07-25T16:48:39.631Z,100740.73
2018-07-25T16:50:44.549Z,100748.28
2018-07-25T16:52:49.549Z,100753.39
2018-07-25T16:54:54.838Z,100750.30
2018-07-25T16:56:59.909Z,100750.22
2018-07-25T16:59:04.798Z,100740.92
2018-07-25T17:01:09.974Z,100743.73
2018-07-25T17:03:14.959Z,100739.22
2018-07-25T17:05:20.097Z,100742.22
2018-07-25T17:07:25.003Z,100741.81
2018-07-25T17:09:29.950Z,100747.92
2018-07-25T17:11:34.933Z,100731.58
2018-07-25T17:13:40.023Z,100737.52
2018-07-25T17:15:45.164Z,100733.90
2018-07-25T17:17:50.004Z,100728.16
2018-07-25T17:19:55.034Z,100737.17
2018-07-25T17:22:00.005Z,100745.61
2018-07-25T17:24:05.019Z,100741.34
2018-07-25T17:26:09.976Z,100740.61
2018-07-25T17:28:15.638Z,100747.73
2018-07-25T17:30:20.513Z,100750.23
2018-07-25T17:32:25.313Z,100748.63
2018-07-25T17:34:30.167Z,100754.07
2018-07-25T17:36:35.058Z,100737.93
2018-07-25T17:38:40.314Z,100751.77
2018-07-25T17:40:45.293Z,100742.36
2018-07-25T17:42:50.364Z,100749.23
2018-07-25T17:44:55.421Z,100753.11
2018-07-25T17:47:00.376Z,100757.76
2018-07-25T17:49:05.462Z,100760.00
2018-07-25T17:51:10.506Z,100771.19
2018-07-25T17:53:15.426Z,100769.08
2018-07-25T17:55:20.467Z,100772.65
2018-07-25T17:57:25.658Z,100777.46
2018-07-25T17:59:30.680Z,100785.57
2018-07-25T18:01:36.168Z,100777.94
2018-07-25T18:03:49.570Z,100777.55
2018-07-25T18:05:55.019Z,100783.36
2018-07-25T18:08:00.495Z,100790.05
2018-07-25T18:10:05.870Z,100787.03
2018-07-25T18:12:11.648Z,100788.66
2018-07-25T18:14:17.433Z,100795.50
2018-07-25T18:16:23.359Z,100803.50
2018-07-25T18:18:28.418Z,100797.61
2018-07-25T18:20:33.607Z,100787.41
2018-07-25T18:22:39.227Z,100791.94
2018-07-25T18:24:45.552Z,100795.73
2018-07-25T18:26:51.797Z,100804.77
2018-07-25T18:28:57.076Z,100797.38
2018-07-25T18:31:02.486Z,100804.11
2018-07-25T18:33:08.381Z,100807.08
2018-07-25T18:35:13.557Z,100808.02
2018-07-25T18:37:19.585Z,100801.33
2018-07-25T18:39:25.590Z,100807.36
2018-07-25T18:41:31.965Z,100809.09
2018-07-25T18:43:37.664Z,100807.50
2018-07-25T18:45:44.549Z,100804.41
2018-07-25T18:47:50.264Z,100809.20
2018-07-25T18:49:55.747Z,100809.33
2018-07-25T18:52:01.865Z,100810.78
2018-07-25T18:54:09.550Z,100815.22
2018-07-25T18:56:15.659Z,100806.89
2018-07-25T18:58:21.431Z,100813.09
2018-07-25T19:00:27.158Z,100818.46
2018-07-25T19:02:33.171Z,100810.59
2018-07-25T19:04:41.759Z,100817.56
2018-07-25T19:06:52.793Z,100807.67
2018-07-25T19:09:02.523Z,100814.34
2018-07-25T19:11:13.349Z,100818.08
2018-07-25T19:13:25.475Z,100815.95
2018-07-25T19:15:34.306Z,100818.14
2018-07-25T19:17:43.694Z,100819.13
2018-07-25T19:19:49.256Z,100816.56
2018-07-25T19:21:55.814Z,100815.21
2018-07-25T19:24:02.376Z,100818.29
2018-07-25T19:26:09.225Z,100803.58
2018-07-25T19:28:18.514Z,100815.78
2018-07-25T19:30:24.408Z,100825.67
2018-07-25T19:32:30.033Z,100823.98
2018-07-25T19:34:40.021Z,100840.64
2018-07-25T19:36:48.403Z,100850.03
2018-07-25T19:38:57.786Z,100845.58
2018-07-25T19:41:07.741Z,100843.39
2018-07-25T19:43:13.242Z,100850.92
2018-07-25T19:45:22.816Z,100846.50
2018-07-25T19:47:33.693Z,100852.27
2018-07-25T19:49:43.539Z,100856.18
2018-07-25T19:51:49.339Z,100853.16
2018-07-25T19:53:59.902Z,100854.69
2018-07-25T19:56:09.019Z,100852.67
2018-07-25T19:58:18.082Z,100846.66
2018-07-25T20:00:28.294Z,100854.34
2018-07-25T20:02:38.458Z,100854.28
2018-07-25T20:04:48.120Z,100861.03
2018-07-25T20:06:58.917Z,100845.76
2018-07-25T20:09:11.000Z,100842.52
2018-07-25T20:11:20.078Z,100852.91
2018-07-25T20:13:33.612Z,100854.39
2018-07-25T20:15:48.109Z,100855.14
2018-07-25T20:17:54.858Z,100840.46
2018-07-25T20:20:00.932Z,100848.48
2018-07-25T20:22:06.237Z,100845.88
2018-07-25T20:24:12.830Z,100845.92
2018-07-25T20:26:21.374Z,100844.18
2018-07-25T20:28:27.226Z,100843.76
2018-07-25T20:30:34.028Z,100840.39
2018-07-25T20:32:39.903Z,100841.88
2018-07-25T20:34:45.201Z,100853.69
2018-07-25T20:36:50.593Z,100852.48
2018-07-25T20:39:04.199Z,100848.56
2018-07-25T20:41:09.513Z,100851.59
2018-07-25T20:43:14.592Z,100845.55
2018-07-25T20:45:20.335Z,100850.34
2018-07-25T20:47:26.169Z,100852.20
2018-07-25T20:49:31.630Z,100853.05
2018-07-25T20:51:37.515Z,100841.73
2018-07-25T20:53:42.949Z,100852.67
2018-07-25T20:55:48.475Z,100847.02
2018-07-25T20:57:54.465Z,100848.36
2018-07-25T21:00:00.535Z,100840.91
2018-07-25T21:02:06.049Z,100845.77
2018-07-25T21:04:11.183Z,100854.18
2018-07-25T21:06:16.324Z,100851.08
2018-07-25T21:08:21.305Z,100852.86
2018-07-25T21:10:26.408Z,100850.33
2018-07-25T21:12:31.400Z,100846.84
2018-07-25T21:14:36.518Z,100845.12
2018-07-25T21:16:41.727Z,100857.85
2018-07-25T21:18:46.809Z,100860.00
2018-07-25T21:20:51.830Z,100855.64
2018-07-25T21:22:57.313Z,100852.23
2018-07-25T21:25:02.333Z,100853.20
2018-07-25T21:27:08.326Z,100857.95
2018-07-25T21:29:13.437Z,100853.11
2018-07-25T21:31:18.722Z,100850.55
2018-07-25T21:33:23.966Z,100850.11
2018-07-25T21:35:29.334Z,100851.46
2018-07-25T21:37:34.958Z,100851.50
2018-07-25T21:39:39.957Z,100857.66
2018-07-25T21:41:44.900Z,100855.89
2018-07-25T21:43:49.995Z,100859.41
2018-07-25T21:45:55.831Z,100861.13
2018-07-25T21:48:00.969Z,100849.39
2018-07-25T21:50:06.124Z,100860.27
2018-07-25T21:52:11.027Z,100860.36
2018-07-25T21:54:16.134Z,100856.41
2018-07-25T21:56:21.291Z,100856.89
2018-07-25T21:58:26.174Z,100858.70
2018-07-25T22:00:34.107Z,100858.25
2018-07-25T22:02:38.957Z,100854.78
2018-07-25T22:04:43.977Z,100854.77
2018-07-25T22:06:49.004Z,100854.34
2018-07-25T22:08:53.972Z,100858.70
2018-07-25T22:10:59.089Z,100861.34
2018-07-25T22:13:04.222Z,100859.18
2018-07-25T22:15:10.425Z,100855.69
2018-07-25T22:17:15.475Z,100855.73
2018-07-25T22:19:22.811Z,100849.21
2018-07-25T22:21:34.547Z,100850.11
2018-07-25T22:23:47.609Z,100851.00
2018-07-25T22:25:53.195Z,100854.50
2018-07-25T22:28:00.137Z,100854.50
2018-07-25T22:30:05.126Z,100855.82
2018-07-25T22:32:10.093Z,100855.88
2018-07-25T22:34:15.125Z,100857.63
2018-07-25T22:36:20.238Z,100862.03
2018-07-25T22:38:25.516Z,100855.05
2018-07-25T22:40:30.472Z,100863.77
2018-07-25T22:42:35.543Z,100857.22
2018-07-25T22:44:40.526Z,100862.03
2018-07-25T22:46:45.534Z,100855.08
2018-07-25T22:48:50.332Z,100855.95
2018-07-25T22:50:55.378Z,100864.67
2018-07-25T22:53:00.208Z,100865.13
2018-07-25T22:55:05.508Z,100861.16
2018-07-25T22:57:11.185Z,100851.61
2018-07-25T22:59:16.402Z,100858.56
2018-07-25T23:01:21.541Z,100860.76
2018-07-25T23:03:26.892Z,100856.84
2018-07-25T23:05:31.772Z,100860.36
2018-07-25T23:07:36.858Z,100859.04
2018-07-25T23:09:41.809Z,100852.95
2018-07-25T23:11:46.657Z,100852.53
2018-07-25T23:13:51.748Z,100852.95
2018-07-25T23:15:56.774Z,100847.27
2018-07-25T23:18:01.877Z,100846.39
2018-07-25T23:20:07.033Z,100843.77
2018-07-25T23:22:11.928Z,100843.77
2018-07-25T23:24:16.863Z,100836.83
2018-07-25T23:26:21.771Z,100839.89
2018-07-25T23:28:26.680Z,100843.39
2018-07-25T23:30:31.717Z,100837.29
2018-07-25T23:32:36.845Z,100827.30
2018-07-25T23:34:41.950Z,100840.80
2018-07-25T23:36:47.221Z,100833.83
2018-07-25T23:38:51.883Z,100836.87
2018-07-25T23:40:57.033Z,100833.39
2018-07-25T23:43:02.263Z,100839.50
2018-07-25T23:45:07.940Z,100834.68
2018-07-25T23:47:15.197Z,100836.02
2018-07-25T23:49:20.321Z,100839.94
2018-07-25T23:51:25.183Z,100839.52
2018-07-25T23:53:29.716Z,100836.90